Strona główna
METAR-TAF:

METAR-TAF

Lotnisko :

Port lotniczy Batam-Hang Nadim

Batam, Indonezja

Szerokość geograficzna: 01-07-15N, Długość geograficzna: 104-07-07E, wysokość: 38 m

Aktualna obserwacja pogody

Raport powstał 1 godzina i 2 minut temu, godzina 08:00 UTC
Wiatr 5 kt od wschodnio-południowy wschód
Temperatura 31°C
Wilgotność 71%
Ciśnienie 1008 hPa
Widzialność 10 km lub więcej
Mało chmury na wysokości 1400 ft

METAR: WIDD 070800Z 12005KT 9999 FEW014 31/25 Q1008

czas: 16:02 (09:02 UTC)

Prognoza

Raport powstał 4 godziny i 2 minut temu, godzina 05:00 UTC
Prognoza ważna od 07 godzina 06 UTC do 08 godzina 06 UTC
Wiatr 8 kt od południowo-południowy wschód
Widzialność 10 km lub więcej
Rozproszone chmury na wysokości 1400 ft
Prawdopodobieństwo 40% :
Przejściowo
od 07 godzina 06 UTC do 07 godzina 09 UTC
Mało chmury na wysokości 1400 ft, Cumulonimbus.
burza, słaby deszcz

TAF: WIDD 070500Z 0706/0806 16008KT 9999 SCT014 PROB40 TEMPO 0706/0709 -TSRA FEW014CB

Obserwacja i prognoza pogody dla ponad 4000 lotnisk (raport METAR i TAF).

Dostępne stacje oznaczono żółtymi i czerwonymi punktami na mapie.

Najedź kursorem aby zobaczyć nazwę stacji.

Kliknij aby zobaczyć obserwacje i prognozy pogody.

Aby zmienić mapę: kliknij na zielony przycisk z czarnym krzyżykiem, aby powiększyć; na zielony przycisk z myślnikiem, aby pomniejszyć; na zielone strzałki, aby przejść do map sąsiednich.


METAR-TAF: